sensor_id;sensor_type;location;lat;lon;timestamp;temperature;humidity
79030;DHT22;68511;51.146;7.012;2023-07-13T00:00:56;19.90;63.60
79030;DHT22;68511;51.146;7.012;2023-07-13T00:01:56;19.90;63.70
79030;DHT22;68511;51.146;7.012;2023-07-13T00:02:57;19.90;63.70
79030;DHT22;68511;51.146;7.012;2023-07-13T00:03:57;19.90;63.70
79030;DHT22;68511;51.146;7.012;2023-07-13T00:04:58;19.90;63.70
79030;DHT22;68511;51.146;7.012;2023-07-13T00:05:59;19.90;63.70
79030;DHT22;68511;51.146;7.012;2023-07-13T00:07:00;19.90;63.70
79030;DHT22;68511;51.146;7.012;2023-07-13T00:08:00;19.90;63.70
79030;DHT22;68511;51.146;7.012;2023-07-13T00:09:00;19.90;63.80
79030;DHT22;68511;51.146;7.012;2023-07-13T00:10:02;19.90;63.80
79030;DHT22;68511;51.146;7.012;2023-07-13T00:11:03;19.90;63.80
79030;DHT22;68511;51.146;7.012;2023-07-13T00:12:03;19.90;63.70
79030;DHT22;68511;51.146;7.012;2023-07-13T00:13:04;19.90;63.70
79030;DHT22;68511;51.146;7.012;2023-07-13T00:14:04;19.90;63.70
79030;DHT22;68511;51.146;7.012;2023-07-13T00:15:07;19.90;63.70
79030;DHT22;68511;51.146;7.012;2023-07-13T00:16:08;19.90;63.70
79030;DHT22;68511;51.146;7.012;2023-07-13T00:17:09;19.90;63.80
79030;DHT22;68511;51.146;7.012;2023-07-13T00:18:09;19.90;63.70
79030;DHT22;68511;51.146;7.012;2023-07-13T00:19:10;19.90;63.70
79030;DHT22;68511;51.146;7.012;2023-07-13T00:20:11;19.90;63.70
79030;DHT22;68511;51.146;7.012;2023-07-13T00:21:12;19.90;63.70
79030;DHT22;68511;51.146;7.012;2023-07-13T00:22:13;19.90;63.70
79030;DHT22;68511;51.146;7.012;2023-07-13T00:23:13;19.90;63.60
79030;DHT22;68511;51.146;7.012;2023-07-13T00:24:15;19.90;63.70
79030;DHT22;68511;51.146;7.012;2023-07-13T00:25:17;19.90;63.70
79030;DHT22;68511;51.146;7.012;2023-07-13T00:26:17;19.90;63.60
79030;DHT22;68511;51.146;7.012;2023-07-13T00:27:18;19.90;63.70
79030;DHT22;68511;51.146;7.012;2023-07-13T00:28:18;19.90;63.70
79030;DHT22;68511;51.146;7.012;2023-07-13T00:29:19;19.90;63.70
79030;DHT22;68511;51.146;7.012;2023-07-13T00:30:21;19.90;63.70
79030;DHT22;68511;51.146;7.012;2023-07-13T00:31:22;19.90;63.70
79030;DHT22;68511;51.146;7.012;2023-07-13T00:32:22;19.90;63.70
79030;DHT22;68511;51.146;7.012;2023-07-13T00:33:22;19.90;63.60
79030;DHT22;68511;51.146;7.012;2023-07-13T00:34:23;19.90;63.70
79030;DHT22;68511;51.146;7.012;2023-07-13T00:35:25;19.90;63.70
79030;DHT22;68511;51.146;7.012;2023-07-13T00:36:26;19.90;63.70
79030;DHT22;68511;51.146;7.012;2023-07-13T00:37:26;19.90;63.60
79030;DHT22;68511;51.146;7.012;2023-07-13T00:38:27;19.90;63.60
79030;DHT22;68511;51.146;7.012;2023-07-13T00:39:27;19.90;63.70
79030;DHT22;68511;51.146;7.012;2023-07-13T00:40:28;19.90;63.70
79030;DHT22;68511;51.146;7.012;2023-07-13T00:41:28;19.90;63.60
79030;DHT22;68511;51.146;7.012;2023-07-13T00:42:29;19.90;63.70
79030;DHT22;68511;51.146;7.012;2023-07-13T00:43:29;19.90;63.70
79030;DHT22;68511;51.146;7.012;2023-07-13T00:44:30;19.90;63.60
79030;DHT22;68511;51.146;7.012;2023-07-13T00:46:32;19.90;63.70
79030;DHT22;68511;51.146;7.012;2023-07-13T00:47:33;19.90;63.70
79030;DHT22;68511;51.146;7.012;2023-07-13T00:48:34;19.90;63.70
79030;DHT22;68511;51.146;7.012;2023-07-13T00:49:36;19.90;63.70
79030;DHT22;68511;51.146;7.012;2023-07-13T00:50:37;19.90;63.70
79030;DHT22;68511;51.146;7.012;2023-07-13T00:51:42;19.90;63.70
79030;DHT22;68511;51.146;7.012;2023-07-13T00:52:44;19.90;63.80
79030;DHT22;68511;51.146;7.012;2023-07-13T00:53:45;19.90;63.70
79030;DHT22;68511;51.146;7.012;2023-07-13T00:54:45;19.90;63.80
79030;DHT22;68511;51.146;7.012;2023-07-13T00:55:47;19.90;63.80
79030;DHT22;68511;51.146;7.012;2023-07-13T00:56:49;19.90;63.80
79030;DHT22;68511;51.146;7.012;2023-07-13T00:57:50;19.90;63.80
79030;DHT22;68511;51.146;7.012;2023-07-13T00:58:50;19.90;63.70
79030;DHT22;68511;51.146;7.012;2023-07-13T00:59:52;19.90;63.80
79030;DHT22;68511;51.146;7.012;2023-07-13T01:00:54;19.90;63.70
79030;DHT22;68511;51.146;7.012;2023-07-13T01:01:54;19.90;63.70
79030;DHT22;68511;51.146;7.012;2023-07-13T01:02:55;19.90;63.70
79030;DHT22;68511;51.146;7.012;2023-07-13T01:03:55;19.90;63.70
79030;DHT22;68511;51.146;7.012;2023-07-13T01:04:57;19.90;63.70
79030;DHT22;68511;51.146;7.012;2023-07-13T01:05:57;19.90;63.70
79030;DHT22;68511;51.146;7.012;2023-07-13T01:06:58;19.90;63.70
79030;DHT22;68511;51.146;7.012;2023-07-13T01:07:59;19.90;63.80
79030;DHT22;68511;51.146;7.012;2023-07-13T01:08:59;19.90;63.70
79030;DHT22;68511;51.146;7.012;2023-07-13T01:10:00;19.90;63.70
79030;DHT22;68511;51.146;7.012;2023-07-13T01:11:00;19.90;63.80
79030;DHT22;68511;51.146;7.012;2023-07-13T01:12:01;19.90;63.70
79030;DHT22;68511;51.146;7.012;2023-07-13T01:13:02;19.90;63.70
79030;DHT22;68511;51.146;7.012;2023-07-13T01:14:03;19.90;63.70
79030;DHT22;68511;51.146;7.012;2023-07-13T01:15:04;19.90;63.70
79030;DHT22;68511;51.146;7.012;2023-07-13T01:16:11;19.90;63.70
79030;DHT22;68511;51.146;7.012;2023-07-13T01:17:13;19.90;63.70
79030;DHT22;68511;51.146;7.012;2023-07-13T01:18:17;19.90;63.70
79030;DHT22;68511;51.146;7.012;2023-07-13T01:19:25;19.90;63.70
79030;DHT22;68511;51.146;7.012;2023-07-13T01:20:30;19.90;63.60
79030;DHT22;68511;51.146;7.012;2023-07-13T01:21:32;19.90;63.70
79030;DHT22;68511;51.146;7.012;2023-07-13T01:22:32;19.90;63.70
79030;DHT22;68511;51.146;7.012;2023-07-13T01:23:33;19.90;63.70
79030;DHT22;68511;51.146;7.012;2023-07-13T01:24:35;19.90;63.70
79030;DHT22;68511;51.146;7.012;2023-07-13T01:25:36;19.90;63.60
79030;DHT22;68511;51.146;7.012;2023-07-13T01:26:37;19.90;63.60
79030;DHT22;68511;51.146;7.012;2023-07-13T01:27:37;19.90;63.70
79030;DHT22;68511;51.146;7.012;2023-07-13T01:28:41;19.90;63.70
79030;DHT22;68511;51.146;7.012;2023-07-13T01:29:43;19.90;63.70
79030;DHT22;68511;51.146;7.012;2023-07-13T01:30:44;19.90;63.70
79030;DHT22;68511;51.146;7.012;2023-07-13T01:31:45;19.90;63.70
79030;DHT22;68511;51.146;7.012;2023-07-13T01:32:46;19.90;63.70
79030;DHT22;68511;51.146;7.012;2023-07-13T01:33:47;19.90;63.70
79030;DHT22;68511;51.146;7.012;2023-07-13T01:34:47;19.90;63.70
79030;DHT22;68511;51.146;7.012;2023-07-13T01:35:48;19.90;63.70
79030;DHT22;68511;51.146;7.012;2023-07-13T01:36:48;19.90;63.60
79030;DHT22;68511;51.146;7.012;2023-07-13T01:37:48;19.90;63.70
79030;DHT22;68511;51.146;7.012;2023-07-13T01:38:49;19.90;63.70
79030;DHT22;68511;51.146;7.012;2023-07-13T01:39:49;19.90;63.70
79030;DHT22;68511;51.146;7.012;2023-07-13T01:40:50;19.90;63.70
79030;DHT22;68511;51.146;7.012;2023-07-13T01:41:51;19.90;63.70
79030;DHT22;68511;51.146;7.012;2023-07-13T01:42:51;19.90;63.70
79030;DHT22;68511;51.146;7.012;2023-07-13T01:43:52;19.90;63.70
79030;DHT22;68511;51.146;7.012;2023-07-13T01:44:52;19.90;63.70
79030;DHT22;68511;51.146;7.012;2023-07-13T01:45:53;19.90;63.70
79030;DHT22;68511;51.146;7.012;2023-07-13T01:46:53;19.90;63.60
79030;DHT22;68511;51.146;7.012;2023-07-13T01:47:54;19.90;63.60
79030;DHT22;68511;51.146;7.012;2023-07-13T01:48:54;19.90;63.60
79030;DHT22;68511;51.146;7.012;2023-07-13T01:49:55;19.90;63.70
79030;DHT22;68511;51.146;7.012;2023-07-13T01:50:55;19.90;63.60
79030;DHT22;68511;51.146;7.012;2023-07-13T01:51:55;19.90;63.60
79030;DHT22;68511;51.146;7.012;2023-07-13T01:52:56;19.90;63.60
79030;DHT22;68511;51.146;7.012;2023-07-13T01:53:56;19.90;63.60
79030;DHT22;68511;51.146;7.012;2023-07-13T01:54:57;19.90;63.60
79030;DHT22;68511;51.146;7.012;2023-07-13T01:55:57;19.90;63.60
79030;DHT22;68511;51.146;7.012;2023-07-13T01:56:58;19.90;63.60
79030;DHT22;68511;51.146;7.012;2023-07-13T01:57:58;19.90;63.60
79030;DHT22;68511;51.146;7.012;2023-07-13T01:58:59;19.90;63.60
79030;DHT22;68511;51.146;7.012;2023-07-13T01:59:59;19.90;63.60
79030;DHT22;68511;51.146;7.012;2023-07-13T02:00:59;19.90;63.60
79030;DHT22;68511;51.146;7.012;2023-07-13T02:02:00;19.90;63.60
79030;DHT22;68511;51.146;7.012;2023-07-13T02:03:00;19.90;63.50
79030;DHT22;68511;51.146;7.012;2023-07-13T02:04:01;19.90;63.50
79030;DHT22;68511;51.146;7.012;2023-07-13T02:05:02;19.90;63.60
79030;DHT22;68511;51.146;7.012;2023-07-13T02:06:02;19.90;63.60
79030;DHT22;68511;51.146;7.012;2023-07-13T02:07:03;19.90;63.60
79030;DHT22;68511;51.146;7.012;2023-07-13T02:08:03;19.90;63.60
79030;DHT22;68511;51.146;7.012;2023-07-13T02:09:04;19.90;63.60
79030;DHT22;68511;51.146;7.012;2023-07-13T02:10:05;19.90;63.70
79030;DHT22;68511;51.146;7.012;2023-07-13T02:11:06;19.90;63.70
79030;DHT22;68511;51.146;7.012;2023-07-13T02:12:06;19.90;63.70
79030;DHT22;68511;51.146;7.012;2023-07-13T02:13:07;19.90;63.70
79030;DHT22;68511;51.146;7.012;2023-07-13T02:14:08;19.90;63.70
79030;DHT22;68511;51.146;7.012;2023-07-13T02:15:09;19.90;63.60
79030;DHT22;68511;51.146;7.012;2023-07-13T02:16:09;19.90;63.60
79030;DHT22;68511;51.146;7.012;2023-07-13T02:17:10;19.90;63.60
79030;DHT22;68511;51.146;7.012;2023-07-13T02:18:11;19.90;63.70
79030;DHT22;68511;51.146;7.012;2023-07-13T02:19:11;19.90;63.70
79030;DHT22;68511;51.146;7.012;2023-07-13T02:20:11;19.90;63.60
79030;DHT22;68511;51.146;7.012;2023-07-13T02:21:12;19.90;63.60
79030;DHT22;68511;51.146;7.012;2023-07-13T02:22:12;19.90;63.60
79030;DHT22;68511;51.146;7.012;2023-07-13T02:23:13;19.90;63.60
79030;DHT22;68511;51.146;7.012;2023-07-13T02:24:13;19.90;63.60
79030;DHT22;68511;51.146;7.012;2023-07-13T02:25:17;19.90;63.50
79030;DHT22;68511;51.146;7.012;2023-07-13T02:26:18;19.90;63.50
79030;DHT22;68511;51.146;7.012;2023-07-13T02:27:18;19.90;63.50
79030;DHT22;68511;51.146;7.012;2023-07-13T02:28:19;19.90;63.50
79030;DHT22;68511;51.146;7.012;2023-07-13T02:29:19;19.90;63.60
79030;DHT22;68511;51.146;7.012;2023-07-13T02:30:20;19.90;63.50
79030;DHT22;68511;51.146;7.012;2023-07-13T02:31:21;19.90;63.50
79030;DHT22;68511;51.146;7.012;2023-07-13T02:32:22;19.90;63.50
79030;DHT22;68511;51.146;7.012;2023-07-13T02:33:25;19.90;63.50
79030;DHT22;68511;51.146;7.012;2023-07-13T02:34:26;19.90;63.50
79030;DHT22;68511;51.146;7.012;2023-07-13T02:35:26;19.90;63.50
79030;DHT22;68511;51.146;7.012;2023-07-13T02:36:26;19.90;63.40
79030;DHT22;68511;51.146;7.012;2023-07-13T02:37:27;19.90;63.50
79030;DHT22;68511;51.146;7.012;2023-07-13T02:38:27;19.90;63.40
79030;DHT22;68511;51.146;7.012;2023-07-13T02:39:28;19.90;63.40
79030;DHT22;68511;51.146;7.012;2023-07-13T02:40:28;19.90;63.40
79030;DHT22;68511;51.146;7.012;2023-07-13T02:41:28;19.90;63.40
79030;DHT22;68511;51.146;7.012;2023-07-13T02:42:29;19.90;63.40
79030;DHT22;68511;51.146;7.012;2023-07-13T02:43:30;19.90;63.40
79030;DHT22;68511;51.146;7.012;2023-07-13T02:44:30;19.90;63.40
79030;DHT22;68511;51.146;7.012;2023-07-13T02:45:31;19.90;63.50
79030;DHT22;68511;51.146;7.012;2023-07-13T02:46:36;19.90;63.40
79030;DHT22;68511;51.146;7.012;2023-07-13T02:47:36;19.90;63.40
79030;DHT22;68511;51.146;7.012;2023-07-13T02:48:38;19.90;63.50
79030;DHT22;68511;51.146;7.012;2023-07-13T02:49:39;19.90;63.50
79030;DHT22;68511;51.146;7.012;2023-07-13T02:50:39;19.90;63.50
79030;DHT22;68511;51.146;7.012;2023-07-13T02:51:40;19.90;63.50
79030;DHT22;68511;51.146;7.012;2023-07-13T02:52:40;19.90;63.50
79030;DHT22;68511;51.146;7.012;2023-07-13T02:53:40;19.90;63.50
79030;DHT22;68511;51.146;7.012;2023-07-13T02:54:41;19.90;63.50
79030;DHT22;68511;51.146;7.012;2023-07-13T02:55:41;19.90;63.50
79030;DHT22;68511;51.146;7.012;2023-07-13T02:56:47;19.90;63.50
79030;DHT22;68511;51.146;7.012;2023-07-13T02:57:48;19.90;63.50
79030;DHT22;68511;51.146;7.012;2023-07-13T02:58:49;19.90;63.50
79030;DHT22;68511;51.146;7.012;2023-07-13T02:59:49;19.90;63.50
79030;DHT22;68511;51.146;7.012;2023-07-13T03:00:50;19.90;63.60
79030;DHT22;68511;51.146;7.012;2023-07-13T03:01:50;19.90;63.60
79030;DHT22;68511;51.146;7.012;2023-07-13T03:02:51;19.90;63.60
79030;DHT22;68511;51.146;7.012;2023-07-13T03:03:51;19.90;63.50
79030;DHT22;68511;51.146;7.012;2023-07-13T03:04:52;19.90;63.60
79030;DHT22;68511;51.146;7.012;2023-07-13T03:05:58;19.90;63.70
79030;DHT22;68511;51.146;7.012;2023-07-13T03:06:59;19.90;63.60
79030;DHT22;68511;51.146;7.012;2023-07-13T03:08:00;19.90;63.50
79030;DHT22;68511;51.146;7.012;2023-07-13T03:09:00;19.90;63.50
79030;DHT22;68511;51.146;7.012;2023-07-13T03:10:01;19.90;63.50
79030;DHT22;68511;51.146;7.012;2023-07-13T03:11:02;19.90;63.50
79030;DHT22;68511;51.146;7.012;2023-07-13T03:12:03;19.90;63.50
79030;DHT22;68511;51.146;7.012;2023-07-13T03:13:03;19.90;63.50
79030;DHT22;68511;51.146;7.012;2023-07-13T03:14:04;19.90;63.50
79030;DHT22;68511;51.146;7.012;2023-07-13T03:15:04;19.90;63.50
79030;DHT22;68511;51.146;7.012;2023-07-13T03:16:05;19.90;63.40
79030;DHT22;68511;51.146;7.012;2023-07-13T03:17:06;19.90;63.40
79030;DHT22;68511;51.146;7.012;2023-07-13T03:18:06;19.90;63.40
79030;DHT22;68511;51.146;7.012;2023-07-13T03:19:07;19.90;63.40
79030;DHT22;68511;51.146;7.012;2023-07-13T03:20:08;19.90;63.40
79030;DHT22;68511;51.146;7.012;2023-07-13T03:21:09;19.90;63.50
79030;DHT22;68511;51.146;7.012;2023-07-13T03:22:09;19.90;63.50
79030;DHT22;68511;51.146;7.012;2023-07-13T03:23:10;19.90;63.50
79030;DHT22;68511;51.146;7.012;2023-07-13T03:24:10;19.90;63.50
79030;DHT22;68511;51.146;7.012;2023-07-13T03:25:11;19.90;63.50
79030;DHT22;68511;51.146;7.012;2023-07-13T03:26:12;19.90;63.40
79030;DHT22;68511;51.146;7.012;2023-07-13T03:27:14;19.90;63.50
79030;DHT22;68511;51.146;7.012;2023-07-13T03:28:15;19.90;63.50
79030;DHT22;68511;51.146;7.012;2023-07-13T03:29:15;19.90;63.50
79030;DHT22;68511;51.146;7.012;2023-07-13T03:30:16;19.90;63.50
79030;DHT22;68511;51.146;7.012;2023-07-13T03:31:18;19.90;63.50
79030;DHT22;68511;51.146;7.012;2023-07-13T03:32:19;19.90;63.50
79030;DHT22;68511;51.146;7.012;2023-07-13T03:33:19;19.90;63.60
79030;DHT22;68511;51.146;7.012;2023-07-13T03:34:20;19.90;63.60
79030;DHT22;68511;51.146;7.012;2023-07-13T03:35:20;19.90;63.40
79030;DHT22;68511;51.146;7.012;2023-07-13T03:36:25;19.90;63.40
79030;DHT22;68511;51.146;7.012;2023-07-13T03:37:26;19.90;63.40
79030;DHT22;68511;51.146;7.012;2023-07-13T03:38:26;19.90;63.50
79030;DHT22;68511;51.146;7.012;2023-07-13T03:39:27;19.90;63.50
79030;DHT22;68511;51.146;7.012;2023-07-13T03:40:27;19.90;63.50
79030;DHT22;68511;51.146;7.012;2023-07-13T03:41:28;19.90;63.50
79030;DHT22;68511;51.146;7.012;2023-07-13T03:42:28;19.90;63.50
79030;DHT22;68511;51.146;7.012;2023-07-13T03:43:29;19.90;63.50
79030;DHT22;68511;51.146;7.012;2023-07-13T03:44:30;19.90;63.50
79030;DHT22;68511;51.146;7.012;2023-07-13T03:45:30;19.90;63.50
79030;DHT22;68511;51.146;7.012;2023-07-13T03:46:31;19.90;63.50
79030;DHT22;68511;51.146;7.012;2023-07-13T03:47:31;19.90;63.50
79030;DHT22;68511;51.146;7.012;2023-07-13T03:48:31;19.90;63.40
79030;DHT22;68511;51.146;7.012;2023-07-13T03:49:32;19.90;63.30
79030;DHT22;68511;51.146;7.012;2023-07-13T03:50:32;19.90;63.40
79030;DHT22;68511;51.146;7.012;2023-07-13T03:51:33;19.80;63.30
79030;DHT22;68511;51.146;7.012;2023-07-13T03:52:33;19.90;63.40
79030;DHT22;68511;51.146;7.012;2023-07-13T03:53:37;19.90;63.30
79030;DHT22;68511;51.146;7.012;2023-07-13T03:54:38;19.90;63.30
79030;DHT22;68511;51.146;7.012;2023-07-13T03:55:38;19.90;63.30
79030;DHT22;68511;51.146;7.012;2023-07-13T03:56:39;19.90;63.30
79030;DHT22;68511;51.146;7.012;2023-07-13T03:57:40;19.90;63.30
79030;DHT22;68511;51.146;7.012;2023-07-13T03:58:41;19.90;63.30
79030;DHT22;68511;51.146;7.012;2023-07-13T03:59:42;19.90;63.40
79030;DHT22;68511;51.146;7.012;2023-07-13T04:00:42;19.90;63.40
79030;DHT22;68511;51.146;7.012;2023-07-13T04:01:43;19.90;63.40
79030;DHT22;68511;51.146;7.012;2023-07-13T04:02:44;19.90;63.30
79030;DHT22;68511;51.146;7.012;2023-07-13T04:03:45;19.90;63.30
79030;DHT22;68511;51.146;7.012;2023-07-13T04:04:46;19.90;63.30
79030;DHT22;68511;51.146;7.012;2023-07-13T04:05:47;19.90;63.40
79030;DHT22;68511;51.146;7.012;2023-07-13T04:06:47;19.90;63.40
79030;DHT22;68511;51.146;7.012;2023-07-13T04:07:48;19.90;63.40
79030;DHT22;68511;51.146;7.012;2023-07-13T04:08:50;19.90;63.40
79030;DHT22;68511;51.146;7.012;2023-07-13T04:09:50;19.90;63.30
79030;DHT22;68511;51.146;7.012;2023-07-13T04:10:51;19.90;63.40
79030;DHT22;68511;51.146;7.012;2023-07-13T04:11:51;19.90;63.30
79030;DHT22;68511;51.146;7.012;2023-07-13T04:12:52;19.90;63.30
79030;DHT22;68511;51.146;7.012;2023-07-13T04:13:52;19.90;63.30
79030;DHT22;68511;51.146;7.012;2023-07-13T04:14:53;19.90;63.40
79030;DHT22;68511;51.146;7.012;2023-07-13T04:15:54;19.90;63.30
79030;DHT22;68511;51.146;7.012;2023-07-13T04:16:55;19.90;63.40
79030;DHT22;68511;51.146;7.012;2023-07-13T04:17:55;19.90;63.50
79030;DHT22;68511;51.146;7.012;2023-07-13T04:18:56;19.90;63.50
79030;DHT22;68511;51.146;7.012;2023-07-13T04:19:59;19.80;63.40
79030;DHT22;68511;51.146;7.012;2023-07-13T04:21:00;19.90;63.40
79030;DHT22;68511;51.146;7.012;2023-07-13T04:22:00;19.80;63.20
79030;DHT22;68511;51.146;7.012;2023-07-13T04:23:01;19.90;63.30
79030;DHT22;68511;51.146;7.012;2023-07-13T04:24:01;19.80;63.20
79030;DHT22;68511;51.146;7.012;2023-07-13T04:25:03;19.90;63.30
79030;DHT22;68511;51.146;7.012;2023-07-13T04:26:05;19.90;63.30
79030;DHT22;68511;51.146;7.012;2023-07-13T04:27:06;19.90;63.30
79030;DHT22;68511;51.146;7.012;2023-07-13T04:28:07;19.90;63.30
79030;DHT22;68511;51.146;7.012;2023-07-13T04:29:08;19.90;63.30
79030;DHT22;68511;51.146;7.012;2023-07-13T04:30:08;19.90;63.30
79030;DHT22;68511;51.146;7.012;2023-07-13T04:31:09;19.90;63.30
79030;DHT22;68511;51.146;7.012;2023-07-13T04:32:09;19.90;63.30
79030;DHT22;68511;51.146;7.012;2023-07-13T04:33:10;19.90;63.20
79030;DHT22;68511;51.146;7.012;2023-07-13T04:34:10;19.90;63.30
79030;DHT22;68511;51.146;7.012;2023-07-13T04:35:12;19.90;63.30
79030;DHT22;68511;51.146;7.012;2023-07-13T04:36:15;19.90;63.40
79030;DHT22;68511;51.146;7.012;2023-07-13T04:37:15;19.80;63.30
79030;DHT22;68511;51.146;7.012;2023-07-13T04:38:16;19.80;63.20
79030;DHT22;68511;51.146;7.012;2023-07-13T04:39:17;19.80;62.80
79030;DHT22;68511;51.146;7.012;2023-07-13T04:40:17;19.80;62.20
79030;DHT22;68511;51.146;7.012;2023-07-13T04:41:18;19.80;61.60
79030;DHT22;68511;51.146;7.012;2023-07-13T04:42:19;19.80;61.50
79030;DHT22;68511;51.146;7.012;2023-07-13T04:43:19;19.80;61.40
79030;DHT22;68511;51.146;7.012;2023-07-13T04:44:20;19.80;61.40
79030;DHT22;68511;51.146;7.012;2023-07-13T04:45:20;19.80;61.60
79030;DHT22;68511;51.146;7.012;2023-07-13T04:46:21;19.80;61.70
79030;DHT22;68511;51.146;7.012;2023-07-13T04:47:21;19.80;61.30
79030;DHT22;68511;51.146;7.012;2023-07-13T04:48:22;19.80;60.90
79030;DHT22;68511;51.146;7.012;2023-07-13T04:49:22;19.80;60.60
79030;DHT22;68511;51.146;7.012;2023-07-13T04:50:23;19.80;60.50
79030;DHT22;68511;51.146;7.012;2023-07-13T04:51:23;19.80;60.20
79030;DHT22;68511;51.146;7.012;2023-07-13T04:52:24;19.80;59.80
79030;DHT22;68511;51.146;7.012;2023-07-13T04:53:25;19.70;59.50
79030;DHT22;68511;51.146;7.012;2023-07-13T04:54:26;19.70;59.40
79030;DHT22;68511;51.146;7.012;2023-07-13T04:55:26;19.70;59.50
79030;DHT22;68511;51.146;7.012;2023-07-13T04:56:30;19.80;59.60
79030;DHT22;68511;51.146;7.012;2023-07-13T04:57:31;19.80;59.60
79030;DHT22;68511;51.146;7.012;2023-07-13T04:58:32;19.80;59.60
79030;DHT22;68511;51.146;7.012;2023-07-13T04:59:33;19.80;59.60
79030;DHT22;68511;51.146;7.012;2023-07-13T05:00:34;19.80;59.50
79030;DHT22;68511;51.146;7.012;2023-07-13T05:01:34;19.80;59.50
79030;DHT22;68511;51.146;7.012;2023-07-13T05:02:37;19.80;59.60
79030;DHT22;68511;51.146;7.012;2023-07-13T05:03:38;19.80;59.60
79030;DHT22;68511;51.146;7.012;2023-07-13T05:04:38;19.80;59.60
79030;DHT22;68511;51.146;7.012;2023-07-13T05:05:39;19.80;59.70
79030;DHT22;68511;51.146;7.012;2023-07-13T05:06:39;19.80;59.80
79030;DHT22;68511;51.146;7.012;2023-07-13T05:07:40;19.80;59.80
79030;DHT22;68511;51.146;7.012;2023-07-13T05:08:40;19.80;59.80
79030;DHT22;68511;51.146;7.012;2023-07-13T05:09:41;19.80;59.80
79030;DHT22;68511;51.146;7.012;2023-07-13T05:10:41;19.80;60.00
79030;DHT22;68511;51.146;7.012;2023-07-13T05:11:42;19.80;60.00
79030;DHT22;68511;51.146;7.012;2023-07-13T05:12:43;19.80;60.10
79030;DHT22;68511;51.146;7.012;2023-07-13T05:13:43;19.80;60.10
79030;DHT22;68511;51.146;7.012;2023-07-13T05:14:44;19.80;60.20
79030;DHT22;68511;51.146;7.012;2023-07-13T05:15:45;19.80;60.30
79030;DHT22;68511;51.146;7.012;2023-07-13T05:16:45;19.80;60.40
79030;DHT22;68511;51.146;7.012;2023-07-13T05:17:46;19.80;60.40
79030;DHT22;68511;51.146;7.012;2023-07-13T05:18:47;19.80;60.50
79030;DHT22;68511;51.146;7.012;2023-07-13T05:19:47;19.80;60.50
79030;DHT22;68511;51.146;7.012;2023-07-13T05:20:54;19.90;60.80
79030;DHT22;68511;51.146;7.012;2023-07-13T05:21:54;19.80;60.80
79030;DHT22;68511;51.146;7.012;2023-07-13T05:22:55;19.80;60.80
79030;DHT22;68511;51.146;7.012;2023-07-13T05:23:56;19.80;60.80
79030;DHT22;68511;51.146;7.012;2023-07-13T05:24:56;19.80;60.80
79030;DHT22;68511;51.146;7.012;2023-07-13T05:25:56;19.80;60.80
79030;DHT22;68511;51.146;7.012;2023-07-13T05:26:57;19.80;60.90
79030;DHT22;68511;51.146;7.012;2023-07-13T05:27:57;19.80;60.90
79030;DHT22;68511;51.146;7.012;2023-07-13T05:28:58;19.80;61.00
79030;DHT22;68511;51.146;7.012;2023-07-13T05:29:58;19.80;61.00
79030;DHT22;68511;51.146;7.012;2023-07-13T05:31:00;19.80;61.00
79030;DHT22;68511;51.146;7.012;2023-07-13T05:32:06;19.80;61.00
79030;DHT22;68511;51.146;7.012;2023-07-13T05:33:07;19.80;61.10
79030;DHT22;68511;51.146;7.012;2023-07-13T05:34:07;19.80;61.20
79030;DHT22;68511;51.146;7.012;2023-07-13T05:35:08;19.80;61.10
79030;DHT22;68511;51.146;7.012;2023-07-13T05:36:08;19.80;61.10
79030;DHT22;68511;51.146;7.012;2023-07-13T05:37:09;19.80;61.20
79030;DHT22;68511;51.146;7.012;2023-07-13T05:38:09;19.80;61.20
79030;DHT22;68511;51.146;7.012;2023-07-13T05:39:10;19.80;61.20
79030;DHT22;68511;51.146;7.012;2023-07-13T05:40:11;19.80;61.20
79030;DHT22;68511;51.146;7.012;2023-07-13T05:41:12;19.80;61.20
79030;DHT22;68511;51.146;7.012;2023-07-13T05:42:12;19.80;61.30
79030;DHT22;68511;51.146;7.012;2023-07-13T05:43:13;19.80;61.30
79030;DHT22;68511;51.146;7.012;2023-07-13T05:44:13;19.80;61.30
79030;DHT22;68511;51.146;7.012;2023-07-13T05:45:14;19.80;61.30
79030;DHT22;68511;51.146;7.012;2023-07-13T05:46:14;19.80;61.30
79030;DHT22;68511;51.146;7.012;2023-07-13T05:47:15;19.80;61.30
79030;DHT22;68511;51.146;7.012;2023-07-13T05:48:15;19.80;61.30
79030;DHT22;68511;51.146;7.012;2023-07-13T05:49:16;19.80;61.30
79030;DHT22;68511;51.146;7.012;2023-07-13T05:50:16;19.80;61.40
79030;DHT22;68511;51.146;7.012;2023-07-13T05:51:16;19.80;61.40
79030;DHT22;68511;51.146;7.012;2023-07-13T05:52:17;19.80;61.40
79030;DHT22;68511;51.146;7.012;2023-07-13T05:53:17;19.80;61.40
79030;DHT22;68511;51.146;7.012;2023-07-13T05:54:18;19.80;61.50
79030;DHT22;68511;51.146;7.012;2023-07-13T05:55:19;19.80;61.50
79030;DHT22;68511;51.146;7.012;2023-07-13T05:56:19;19.80;61.50
79030;DHT22;68511;51.146;7.012;2023-07-13T05:57:20;19.80;61.50
79030;DHT22;68511;51.146;7.012;2023-07-13T05:58:20;19.80;61.50
79030;DHT22;68511;51.146;7.012;2023-07-13T05:59:21;19.80;61.60
79030;DHT22;68511;51.146;7.012;2023-07-13T06:00:21;19.80;61.60
79030;DHT22;68511;51.146;7.012;2023-07-13T06:01:22;19.80;61.60
79030;DHT22;68511;51.146;7.012;2023-07-13T06:02:23;19.80;61.70
79030;DHT22;68511;51.146;7.012;2023-07-13T06:03:24;19.80;61.70
79030;DHT22;68511;51.146;7.012;2023-07-13T06:04:24;19.80;61.70
79030;DHT22;68511;51.146;7.012;2023-07-13T06:05:25;19.80;61.70
79030;DHT22;68511;51.146;7.012;2023-07-13T06:06:25;19.80;61.70
79030;DHT22;68511;51.146;7.012;2023-07-13T06:07:26;19.80;61.70
79030;DHT22;68511;51.146;7.012;2023-07-13T06:08:26;19.80;61.70
79030;DHT22;68511;51.146;7.012;2023-07-13T06:09:27;19.80;61.70
79030;DHT22;68511;51.146;7.012;2023-07-13T06:10:27;19.80;61.70
79030;DHT22;68511;51.146;7.012;2023-07-13T06:11:28;19.80;61.70
79030;DHT22;68511;51.146;7.012;2023-07-13T06:12:30;19.80;61.80
79030;DHT22;68511;51.146;7.012;2023-07-13T06:13:30;19.80;61.70
79030;DHT22;68511;51.146;7.012;2023-07-13T06:14:31;19.80;61.80
79030;DHT22;68511;51.146;7.012;2023-07-13T06:15:31;19.80;61.80
79030;DHT22;68511;51.146;7.012;2023-07-13T06:16:31;19.80;61.90
79030;DHT22;68511;51.146;7.012;2023-07-13T06:17:32;19.80;61.80
79030;DHT22;68511;51.146;7.012;2023-07-13T06:18:33;19.80;61.80
79030;DHT22;68511;51.146;7.012;2023-07-13T06:19:34;19.80;61.70
79030;DHT22;68511;51.146;7.012;2023-07-13T06:20:34;19.80;61.80
79030;DHT22;68511;51.146;7.012;2023-07-13T06:21:35;19.80;61.80
79030;DHT22;68511;51.146;7.012;2023-07-13T06:22:35;19.80;61.80
79030;DHT22;68511;51.146;7.012;2023-07-13T06:23:36;19.80;61.80
79030;DHT22;68511;51.146;7.012;2023-07-13T06:24:37;19.80;61.80
79030;DHT22;68511;51.146;7.012;2023-07-13T06:25:37;19.80;61.80